createdAt,value
2018-09-19T00:01:49.146Z,100939.56
2018-09-19T00:04:16.216Z,100945.37
2018-09-19T00:06:44.240Z,100939.72
2018-09-19T00:09:12.606Z,100940.90
2018-09-19T00:11:40.242Z,100938.89
2018-09-19T00:14:08.551Z,100941.39
2018-09-19T00:16:36.625Z,100946.70
2018-09-19T00:19:03.560Z,100949.86
2018-09-19T00:21:31.486Z,100948.34
2018-09-19T00:23:58.739Z,100946.21
2018-09-19T00:26:26.864Z,100948.94
2018-09-19T00:28:53.961Z,100951.95
2018-09-19T00:31:22.051Z,100946.64
2018-09-19T00:33:50.519Z,100951.83
2018-09-19T00:36:18.711Z,100950.50
2018-09-19T00:38:46.010Z,100951.54
2018-09-19T00:41:13.096Z,100952.87
2018-09-19T00:43:40.223Z,100955.75
2018-09-19T00:46:08.021Z,100949.72
2018-09-19T00:48:36.449Z,100957.91
2018-09-19T00:51:03.479Z,100952.68
2018-09-19T00:53:30.713Z,100970.63
2018-09-19T00:55:57.752Z,100965.47
2018-09-19T00:58:24.805Z,100971.05
2018-09-19T01:00:51.865Z,100977.91
2018-09-19T01:03:19.684Z,100971.05
2018-09-19T01:05:47.710Z,100973.59
2018-09-19T01:08:15.549Z,100978.18
2018-09-19T01:10:43.621Z,100979.09
2018-09-19T01:13:11.479Z,100983.49
2018-09-19T01:15:38.538Z,100994.69
2018-09-19T01:18:07.094Z,100995.67
2018-09-19T01:20:35.092Z,100989.37
2018-09-19T01:23:03.044Z,100997.84
2018-09-19T01:25:30.997Z,100996.63
2018-09-19T01:27:59.048Z,100998.95
2018-09-19T01:30:26.245Z,101004.91
2018-09-19T01:32:54.243Z,101010.71
2018-09-19T01:35:22.126Z,101008.66
2018-09-19T01:37:51.791Z,101015.88
2018-09-19T01:40:19.574Z,101018.19
2018-09-19T01:42:47.545Z,101016.30
2018-09-19T01:45:14.575Z,101017.40
2018-09-19T01:47:42.544Z,101028.74
2018-09-19T01:50:09.622Z,101033.22
2018-09-19T01:52:37.672Z,101028.52
2018-09-19T01:55:06.936Z,101036.22
2018-09-19T01:57:33.999Z,101039.52
2018-09-19T02:00:01.966Z,101051.67
2018-09-19T02:02:30.047Z,101055.46
2018-09-19T02:04:58.020Z,101057.89
2018-09-19T02:07:25.041Z,101069.86
2018-09-19T02:09:53.047Z,101070.53
2018-09-19T02:12:21.024Z,101077.33
2018-09-19T02:14:50.137Z,101083.78
2018-09-19T02:17:18.025Z,101095.17
2018-09-19T02:19:45.961Z,101091.45
2018-09-19T02:22:13.023Z,101094.33
2018-09-19T02:24:41.134Z,101089.77
2018-09-19T02:27:08.147Z,101089.28
2018-09-19T02:29:36.321Z,101089.86
2018-09-19T02:32:04.346Z,101101.05
2018-09-19T02:34:32.313Z,101106.55
2018-09-19T02:36:59.452Z,101117.94
2018-09-19T02:39:27.474Z,101128.79
2018-09-19T02:41:55.331Z,101121.31
2018-09-19T02:44:23.280Z,101134.86
2018-09-19T02:46:51.661Z,101129.48
2018-09-19T02:49:18.693Z,101125.30
2018-09-19T02:51:46.739Z,101138.58
2018-09-19T02:54:13.764Z,101143.55
2018-09-19T02:56:41.768Z,101153.19
2018-09-19T02:59:08.851Z,101155.30
2018-09-19T03:01:36.363Z,101158.16
2018-09-19T03:04:05.124Z,101156.69
2018-09-19T03:06:33.169Z,101160.09
2018-09-19T03:09:01.129Z,101163.48
2018-09-19T03:11:29.104Z,101165.06
2018-09-19T03:13:57.136Z,101162.34
2018-09-19T03:16:24.253Z,101160.03
2018-09-19T03:18:52.377Z,101172.97
2018-09-19T03:21:21.703Z,101157.58
2018-09-19T03:23:50.204Z,101172.37
2018-09-19T03:26:17.327Z,101172.63
2018-09-19T03:28:45.372Z,101167.17
2018-09-19T03:31:13.261Z,101178.55
2018-09-19T03:33:41.275Z,101176.53
2018-09-19T03:36:08.371Z,101168.98
2018-09-19T03:38:36.869Z,101167.40
2018-09-19T03:41:04.038Z,101173.23
2018-09-19T03:43:32.081Z,101173.70
2018-09-19T03:46:02.827Z,101175.28
2018-09-19T03:48:30.667Z,101179.19
2018-09-19T03:50:57.690Z,101178.34
2018-09-19T03:53:38.640Z,101184.64
2018-09-19T03:56:07.990Z,101187.44
2018-09-19T03:58:37.138Z,101196.13
2018-09-19T04:01:04.145Z,101204.28
2018-09-19T04:03:32.163Z,101201.36
2018-09-19T04:06:02.084Z,101209.91
2018-09-19T04:08:30.059Z,101208.15
2018-09-19T04:10:57.115Z,101208.15
2018-09-19T04:13:24.148Z,101209.73
2018-09-19T04:15:51.228Z,101209.41
2018-09-19T04:18:18.282Z,101205.69
2018-09-19T04:20:46.992Z,101209.25
2018-09-19T04:23:14.041Z,101212.63
2018-09-19T04:25:42.041Z,101209.47
2018-09-19T04:28:09.035Z,101222.75
2018-09-19T04:30:38.036Z,101219.41
2018-09-19T04:33:05.193Z,101226.88
2018-09-19T04:35:32.462Z,101230.17
2018-09-19T04:37:59.547Z,101234.48
2018-09-19T04:40:38.125Z,101235.95
2018-09-19T04:43:06.337Z,101238.48
2018-09-19T04:45:34.252Z,101239.58
2018-09-19T04:48:01.436Z,101236.67
2018-09-19T04:50:29.417Z,101242.59
2018-09-19T04:52:57.273Z,101250.59
2018-09-19T04:55:25.117Z,101255.05
2018-09-19T04:57:57.205Z,101249.44
2018-09-19T05:00:24.369Z,101256.36
2018-09-19T05:02:52.230Z,101253.84
2018-09-19T05:05:20.189Z,101256.53
2018-09-19T05:07:48.119Z,101264.54
2018-09-19T05:10:15.156Z,101276.76
2018-09-19T05:12:42.186Z,101280.48
2018-09-19T05:15:09.220Z,101275.75
2018-09-19T05:17:37.340Z,101281.41
2018-09-19T05:20:09.363Z,101283.00
2018-09-19T05:22:37.145Z,101285.17
2018-09-19T05:25:04.248Z,101280.00
2018-09-19T05:27:31.335Z,101285.66
2018-09-19T05:29:59.221Z,101290.86
2018-09-19T05:32:26.999Z,101293.98
2018-09-19T05:34:54.022Z,101294.13
2018-09-19T05:37:22.077Z,101300.28
2018-09-19T05:39:51.063Z,101298.06
2018-09-19T05:42:20.186Z,101302.84
2018-09-19T05:44:47.294Z,101305.39
2018-09-19T05:47:14.347Z,101304.76
2018-09-19T05:49:42.017Z,101311.34
2018-09-19T05:52:10.230Z,101314.73
2018-09-19T05:54:39.736Z,101315.63
2018-09-19T05:57:08.004Z,101324.09
2018-09-19T05:59:36.334Z,101321.78
2018-09-19T06:02:04.238Z,101318.98
2018-09-19T06:04:32.123Z,101321.03
2018-09-19T06:07:00.040Z,101317.64
2018-09-19T06:09:28.183Z,101315.63
2018-09-19T06:11:56.242Z,101313.45
2018-09-19T06:14:24.328Z,101312.97
2018-09-19T06:16:51.370Z,101322.77
2018-09-19T06:19:19.873Z,101328.92
2018-09-19T06:21:48.002Z,101330.94
2018-09-19T06:24:15.957Z,101331.43
2018-09-19T06:26:43.892Z,101325.71
2018-09-19T06:29:11.837Z,101339.64
2018-09-19T06:31:39.893Z,101339.84
2018-09-19T06:34:06.972Z,101352.20
2018-09-19T06:36:34.147Z,101349.49
2018-09-19T06:39:02.166Z,101358.20
2018-09-19T06:41:30.071Z,101357.61
2018-09-19T06:43:57.095Z,101365.94
2018-09-19T06:46:24.213Z,101366.08
2018-09-19T06:48:51.283Z,101368.73
2018-09-19T06:51:19.611Z,101372.98
2018-09-19T06:53:46.654Z,101371.55
2018-09-19T06:56:13.595Z,101378.28
2018-09-19T06:58:40.705Z,101371.75
2018-09-19T07:01:07.638Z,101376.37
2018-09-19T07:03:34.706Z,101376.23
2018-09-19T07:06:04.246Z,101382.73
2018-09-19T07:08:33.065Z,101381.20
2018-09-19T07:11:01.845Z,101387.34
2018-09-19T07:13:29.769Z,101391.48
2018-09-19T07:15:57.722Z,101386.66
2018-09-19T07:18:24.990Z,101384.00
2018-09-19T07:20:52.911Z,101387.00
2018-09-19T07:23:21.197Z,101395.18
2018-09-19T07:25:48.221Z,101394.34
2018-09-19T07:28:15.244Z,101399.17
2018-09-19T07:30:42.234Z,101397.50
2018-09-19T07:33:09.320Z,101402.56
2018-09-19T07:35:36.338Z,101403.66
2018-09-19T07:38:03.850Z,101407.29
2018-09-19T07:40:32.528Z,101411.13
2018-09-19T07:42:59.745Z,101412.12
2018-09-19T07:45:27.057Z,101416.94
2018-09-19T07:47:54.981Z,101415.02
2018-09-19T07:50:22.272Z,101415.97
2018-09-19T07:52:50.720Z,101415.02
2018-09-19T07:55:19.898Z,101418.16
2018-09-19T07:57:47.059Z,101413.20
2018-09-19T08:00:15.047Z,101410.53
2018-09-19T08:02:43.109Z,101412.70
2018-09-19T08:05:10.346Z,101408.48
2018-09-19T08:07:38.241Z,101412.47
2018-09-19T08:10:05.410Z,101412.47
2018-09-19T08:12:33.237Z,101414.17
2018-09-19T08:15:02.242Z,101410.64
2018-09-19T08:17:30.350Z,101414.77
2018-09-19T08:19:57.515Z,101416.94
2018-09-19T08:22:25.422Z,101410.30
2018-09-19T08:24:53.217Z,101417.92
2018-09-19T08:27:21.068Z,101417.92
2018-09-19T08:29:49.827Z,101416.36
2018-09-19T08:32:17.758Z,101417.69
2018-09-19T08:34:44.910Z,101410.58
2018-09-19T08:37:11.892Z,101412.47
2018-09-19T08:39:40.105Z,101412.47
2018-09-19T08:42:08.091Z,101414.77
2018-09-19T08:44:35.958Z,101412.86
2018-09-19T08:47:04.043Z,101415.27
2018-09-19T08:49:32.865Z,101415.27
2018-09-19T08:52:01.516Z,101421.91
2018-09-19T08:54:29.343Z,101424.57
2018-09-19T08:56:56.391Z,101426.25
2018-09-19T08:59:23.413Z,101418.41
2018-09-19T09:01:51.082Z,101419.25
2018-09-19T09:04:19.694Z,101421.22
2018-09-19T09:06:46.776Z,101421.22
2018-09-19T09:09:13.823Z,101421.56
2018-09-19T09:11:40.882Z,101427.58
2018-09-19T09:14:07.871Z,101429.39
2018-09-19T09:16:35.043Z,101421.67
2018-09-19T09:19:02.685Z,101429.05
2018-09-19T09:21:29.892Z,101422.55
2018-09-19T09:23:57.082Z,101426.98
2018-09-19T09:26:24.091Z,101426.98
2018-09-19T09:28:51.726Z,101432.30
2018-09-19T09:31:19.453Z,101422.55
2018-09-19T09:33:47.286Z,101423.39
2018-09-19T09:36:15.221Z,101423.39
2018-09-19T09:38:43.151Z,101431.36
2018-09-19T09:41:10.873Z,101428.70
2018-09-19T09:43:38.928Z,101420.34
2018-09-19T09:46:05.988Z,101424.33
2018-09-19T09:48:34.014Z,101420.34
2018-09-19T09:51:01.981Z,101421.95
2018-09-19T09:53:29.110Z,101424.57
2018-09-19T09:56:03.733Z,101416.25
2018-09-19T09:58:30.743Z,101412.91
2018-09-19T10:00:57.842Z,101410.34
2018-09-19T10:03:24.859Z,101410.09
2018-09-19T10:05:51.906Z,101404.77
2018-09-19T10:08:19.503Z,101406.59
2018-09-19T10:10:47.536Z,101410.44
2018-09-19T10:13:21.349Z,101408.38
2018-09-19T10:15:48.379Z,101399.47
2018-09-19T10:18:15.398Z,101400.45
2018-09-19T10:20:42.393Z,101409.50
2018-09-19T10:23:09.617Z,101410.20
2018-09-19T10:25:36.603Z,101411.33
2018-09-19T10:28:03.693Z,101406.84
2018-09-19T10:30:32.521Z,101412.37
2018-09-19T10:33:02.136Z,101407.20
2018-09-19T10:35:30.144Z,101402.12
2018-09-19T10:37:57.143Z,101396.42
2018-09-19T10:40:25.054Z,101393.41
2018-09-19T10:42:52.036Z,101395.09
2018-09-19T10:45:20.976Z,101400.06
2018-09-19T10:47:47.944Z,101387.51
2018-09-19T10:50:14.988Z,101387.11
2018-09-19T10:52:42.090Z,101383.91
2018-09-19T10:55:09.262Z,101389.92
2018-09-19T10:57:36.276Z,101381.45
2018-09-19T11:00:03.809Z,101384.25
2018-09-19T11:02:31.549Z,101376.88
2018-09-19T11:04:59.570Z,101377.11
2018-09-19T11:07:26.622Z,101376.77
2018-09-19T11:09:53.623Z,101381.80
2018-09-19T11:12:20.772Z,101377.37
2018-09-19T11:14:50.088Z,101382.08
2018-09-19T11:17:17.161Z,101376.27
2018-09-19T11:19:45.249Z,101366.24
2018-09-19T11:22:19.866Z,101365.41
2018-09-19T11:24:47.704Z,101360.62
2018-09-19T11:27:14.680Z,101356.73
2018-09-19T11:29:42.630Z,101359.39
2018-09-19T11:32:10.952Z,101356.94
2018-09-19T11:34:38.037Z,101358.91
2018-09-19T11:37:05.063Z,101359.98
2018-09-19T11:39:33.141Z,101356.34
2018-09-19T11:42:01.964Z,101346.69
2018-09-19T11:44:29.974Z,101341.83
2018-09-19T11:46:56.985Z,101356.10
2018-09-19T11:49:24.000Z,101352.34
2018-09-19T11:51:51.954Z,101341.38
2018-09-19T11:54:21.056Z,101344.03
2018-09-19T11:56:49.050Z,101346.55
2018-09-19T11:59:16.171Z,101343.05
2018-09-19T12:01:44.275Z,101334.72
2018-09-19T12:04:11.277Z,101334.34
2018-09-19T12:06:40.264Z,101330.36
2018-09-19T12:09:09.127Z,101327.35
2018-09-19T12:11:37.266Z,101329.52
2018-09-19T12:14:05.513Z,101329.86
2018-09-19T12:16:33.519Z,101322.36
2018-09-19T12:19:01.930Z,101327.01
2018-09-19T12:21:29.911Z,101326.86
2018-09-19T12:23:57.759Z,101328.54
2018-09-19T12:26:25.702Z,101319.38
2018-09-19T12:28:53.689Z,101321.89
2018-09-19T12:31:20.843Z,101320.45
2018-09-19T12:33:49.624Z,101317.55
2018-09-19T12:36:16.633Z,101321.05
2018-09-19T12:38:43.748Z,101306.23
2018-09-19T12:41:10.709Z,101309.38
2018-09-19T12:43:38.524Z,101306.44
2018-09-19T12:46:05.609Z,101298.11
2018-09-19T12:48:33.529Z,101303.34
2018-09-19T12:51:02.299Z,101300.56
2018-09-19T12:53:30.302Z,101301.41
2018-09-19T12:55:57.364Z,101296.34
2018-09-19T12:58:25.294Z,101299.59
2018-09-19T13:00:52.941Z,101295.59
2018-09-19T13:03:20.853Z,101293.78
2018-09-19T13:05:49.975Z,101294.76
2018-09-19T13:08:17.839Z,101292.10
2018-09-19T13:10:45.858Z,101288.46
2018-09-19T13:13:13.055Z,101286.30
2018-09-19T13:15:40.816Z,101288.66
2018-09-19T13:18:08.803Z,101287.39
2018-09-19T13:20:36.836Z,101287.63
2018-09-19T13:23:04.801Z,101286.15
2018-09-19T13:25:34.299Z,101283.64
2018-09-19T13:28:03.095Z,101277.59
2018-09-19T13:30:30.170Z,101276.27
2018-09-19T13:32:58.267Z,101268.67
2018-09-19T13:35:25.323Z,101269.36
2018-09-19T13:37:53.339Z,101268.38
2018-09-19T13:40:21.192Z,101265.38
2018-09-19T13:42:49.168Z,101262.86
2018-09-19T13:45:17.238Z,101258.16
2018-09-19T13:47:44.428Z,101257.81
2018-09-19T13:54:33.004Z,101242.09
2018-09-19T13:57:01.963Z,101231.34
2018-09-19T13:59:29.951Z,101235.11
2018-09-19T14:01:57.998Z,101240.96
2018-09-19T14:04:25.085Z,101234.20
2018-09-19T14:06:53.146Z,101242.00
2018-09-19T14:09:21.770Z,101241.02
2018-09-19T14:11:49.820Z,101239.78
2018-09-19T14:14:16.796Z,101243.04
2018-09-19T14:16:43.896Z,101245.36
2018-09-19T14:19:11.671Z,101245.84
2018-09-19T14:21:38.714Z,101243.19
2018-09-19T14:24:05.834Z,101238.94
2018-09-19T14:26:33.835Z,101226.98
2018-09-19T14:29:02.927Z,101224.81
2018-09-19T14:31:31.882Z,101230.13
2018-09-19T14:33:59.906Z,101223.95
2018-09-19T14:36:27.954Z,101217.10
2018-09-19T14:38:55.845Z,101214.44
2018-09-19T14:41:23.813Z,101217.94
2018-09-19T14:43:51.914Z,101207.66
2018-09-19T14:46:20.802Z,101204.65
2018-09-19T14:48:48.627Z,101209.96
2018-09-19T14:51:17.074Z,101207.45
2018-09-19T14:53:44.154Z,101206.73
2018-09-19T14:56:11.370Z,101203.17
2018-09-19T14:58:39.420Z,101207.81
2018-09-19T15:01:07.443Z,101210.54
2018-09-19T15:03:35.749Z,101204.59
2018-09-19T15:06:04.557Z,101207.73
2018-09-19T15:08:33.771Z,101205.98
2018-09-19T15:11:02.812Z,101212.28
2018-09-19T15:13:29.925Z,101212.13
2018-09-19T15:15:57.057Z,101210.60
2018-09-19T15:18:25.028Z,101213.27
2018-09-19T15:20:52.080Z,101209.73
2018-09-19T15:23:21.600Z,101208.35
2018-09-19T15:25:50.518Z,101203.64
2018-09-19T15:28:18.510Z,101201.83
2018-09-19T15:30:45.755Z,101209.87
2018-09-19T15:33:13.910Z,101211.64
2018-09-19T15:35:40.955Z,101204.23
2018-09-19T15:38:08.809Z,101204.75
2018-09-19T15:40:36.704Z,101203.58
2018-09-19T15:43:11.448Z,101199.37
2018-09-19T15:45:38.579Z,101193.45
2018-09-19T15:48:05.613Z,101189.87
2018-09-19T15:50:33.275Z,101191.14
2018-09-19T15:53:02.476Z,101187.64
2018-09-19T15:55:30.470Z,101178.97
2018-09-19T15:57:57.749Z,101172.67
2018-09-19T16:00:25.436Z,101176.66
2018-09-19T16:02:52.606Z,101174.00
2018-09-19T16:05:20.730Z,101169.66
2018-09-19T16:07:49.988Z,101169.52
2018-09-19T16:10:17.316Z,101174.84
2018-09-19T16:12:45.242Z,101171.83
2018-09-19T16:15:13.111Z,101171.34
2018-09-19T16:17:40.238Z,101169.66
2018-09-19T16:20:07.442Z,101171.83
2018-09-19T16:22:34.436Z,101174.49
2018-09-19T16:25:03.095Z,101169.52
2018-09-19T16:27:30.340Z,101171.95
2018-09-19T16:29:57.474Z,101162.79
2018-09-19T16:32:24.788Z,101163.28
2018-09-19T16:34:52.841Z,101163.63
2018-09-19T16:37:20.059Z,101161.61
2018-09-19T16:39:47.174Z,101159.07
2018-09-19T16:42:15.310Z,101163.78
2018-09-19T16:44:43.368Z,101168.75
2018-09-19T16:47:11.170Z,101158.23
2018-09-19T16:49:39.031Z,101167.92
2018-09-19T16:52:06.982Z,101158.61
2018-09-19T16:54:34.837Z,101163.55
2018-09-19T16:57:03.031Z,101165.53
2018-09-19T16:59:34.280Z,101160.20
2018-09-19T17:02:02.568Z,101166.86
2018-09-19T17:04:29.633Z,101164.20
2018-09-19T17:06:56.721Z,101163.86
2018-09-19T17:09:23.807Z,101167.47
2018-09-19T17:11:52.831Z,101167.47
2018-09-19T17:14:20.897Z,101169.78
2018-09-19T17:16:48.153Z,101174.61
2018-09-19T17:19:16.052Z,101172.09
2018-09-19T17:21:44.010Z,101174.76
2018-09-19T17:24:11.874Z,101177.56
2018-09-19T17:26:39.875Z,101183.38
2018-09-19T17:29:07.910Z,101180.22
2018-09-19T17:31:36.042Z,101182.39
2018-09-19T17:34:03.976Z,101184.33
2018-09-19T17:36:31.585Z,101183.57
2018-09-19T17:38:59.399Z,101183.72
2018-09-19T17:41:26.451Z,101187.71
2018-09-19T17:43:54.547Z,101195.69
2018-09-19T17:46:21.663Z,101195.34
2018-09-19T17:48:48.664Z,101192.30
2018-09-19T17:51:15.840Z,101194.47
2018-09-19T17:53:42.853Z,101193.29
2018-09-19T17:56:09.933Z,101195.95
2018-09-19T17:58:37.331Z,101197.62
2018-09-19T18:01:05.214Z,101195.95
2018-09-19T18:03:32.610Z,101190.97
2018-09-19T18:06:02.624Z,101195.34
2018-09-19T18:08:29.757Z,101197.13
2018-09-19T18:10:56.986Z,101199.45
2018-09-19T18:13:24.123Z,101194.97
2018-09-19T18:15:51.140Z,101193.03
2018-09-19T18:18:32.555Z,101195.19
2018-09-19T18:20:59.691Z,101203.77
2018-09-19T18:26:12.534Z,101198.28
2018-09-19T18:28:39.736Z,101201.83
2018-09-19T18:31:07.106Z,101196.59
2018-09-19T18:33:35.289Z,101195.61
2018-09-19T18:36:04.429Z,101195.11
2018-09-19T18:38:33.096Z,101200.92
2018-09-19T18:41:00.340Z,101198.27
2018-09-19T18:43:28.482Z,101204.91
2018-09-19T18:45:55.517Z,101196.94
2018-09-19T18:48:23.422Z,101204.42
2018-09-19T18:50:51.393Z,101201.76
2018-09-19T18:53:18.609Z,101211.06
2018-09-19T18:55:46.601Z,101206.24
2018-09-19T18:58:13.714Z,101215.89
2018-09-19T19:00:42.205Z,101207.08
2018-09-19T19:03:09.399Z,101209.39
2018-09-19T19:05:37.429Z,101207.57
2018-09-19T19:08:04.516Z,101210.72
2018-09-19T19:10:33.044Z,101212.89
2018-09-19T19:13:02.332Z,101216.38
2018-09-19T19:15:30.313Z,101217.48
2018-09-19T19:17:58.145Z,101215.31
2018-09-19T19:20:25.214Z,101219.19
2018-09-19T19:22:53.141Z,101225.46
2018-09-19T19:25:20.877Z,101217.48
2018-09-19T19:27:49.792Z,101220.63
2018-09-19T19:30:16.879Z,101228.27
2018-09-19T19:32:43.971Z,101220.52
2018-09-19T19:35:10.960Z,101229.59
2018-09-19T19:37:38.089Z,101224.63
2018-09-19T19:40:05.462Z,101227.43
2018-09-19T19:42:33.656Z,101225.46
2018-09-19T19:45:00.587Z,101227.28
2018-09-19T19:47:28.504Z,101224.77
2018-09-19T19:49:55.662Z,101232.41
2018-09-19T19:52:23.683Z,101225.61
2018-09-19T19:54:50.756Z,101226.73
2018-09-19T19:57:17.807Z,101224.42
2018-09-19T19:59:44.927Z,101223.09
2018-09-19T20:04:45.018Z,101225.33
2018-09-19T20:07:12.110Z,101229.86
2018-09-19T20:09:39.218Z,101230.23
2018-09-19T20:12:06.329Z,101227.43
2018-09-19T20:14:37.746Z,101231.42
2018-09-19T20:17:05.098Z,101234.83
2018-09-19T20:19:33.408Z,101229.11
2018-09-19T20:22:01.982Z,101232.75
2018-09-19T20:24:29.043Z,101232.05
2018-09-19T20:27:02.650Z,101226.73
2018-09-19T20:29:29.704Z,101229.66
2018-09-19T20:31:56.722Z,101234.72
2018-09-19T20:34:23.760Z,101233.73
2018-09-19T20:36:51.713Z,101232.75
2018-09-19T20:39:18.850Z,101233.50
2018-09-19T20:41:45.876Z,101232.31
2018-09-19T20:44:12.872Z,101236.87
2018-09-19T20:46:39.999Z,101236.05
2018-09-19T20:49:07.152Z,101235.32
2018-09-19T20:51:34.401Z,101234.34
2018-09-19T20:54:02.710Z,101236.05
2018-09-19T20:56:29.727Z,101232.41
2018-09-19T20:58:56.903Z,101234.72
2018-09-19T21:01:23.997Z,101234.72
2018-09-19T21:03:52.651Z,101230.34
2018-09-19T21:06:20.454Z,101235.81
2018-09-19T21:08:47.552Z,101234.63
2018-09-19T21:11:14.539Z,101230.98
2018-09-19T21:13:41.754Z,101235.47
2018-09-19T21:16:09.837Z,101232.92
2018-09-19T21:18:37.025Z,101240.78
2018-09-19T21:21:04.248Z,101242.95
2018-09-19T21:23:31.916Z,101239.45
2018-09-19T21:26:00.113Z,101244.28
2018-09-19T21:28:28.173Z,101242.11
2018-09-19T21:30:55.251Z,101243.94
2018-09-19T21:33:22.412Z,101236.30
2018-09-19T21:35:49.460Z,101237.48
2018-09-19T21:38:17.500Z,101248.84
2018-09-19T21:40:45.407Z,101240.14
2018-09-19T21:43:12.528Z,101238.62
2018-09-19T21:45:39.580Z,101237.14
2018-09-19T21:48:06.636Z,101236.30
2018-09-19T21:50:33.705Z,101243.44
2018-09-19T21:53:00.764Z,101244.28
2018-09-19T21:55:27.997Z,101245.27
2018-09-19T21:57:55.154Z,101246.45
2018-09-19T22:00:22.274Z,101251.62
2018-09-19T22:02:50.334Z,101252.95
2018-09-19T22:05:17.567Z,101248.01
2018-09-19T22:07:44.617Z,101245.76
2018-09-19T22:10:11.672Z,101248.04
2018-09-19T22:12:39.635Z,101247.55
2018-09-19T22:15:06.875Z,101244.69
2018-09-19T22:17:34.834Z,101240.55
2018-09-19T22:20:04.204Z,101241.05
2018-09-19T22:22:32.931Z,101235.88
2018-09-19T22:24:59.947Z,101241.05
2018-09-19T22:27:27.907Z,101240.44
2018-09-19T22:29:55.995Z,101235.58
2018-09-19T22:32:24.056Z,101234.98
2018-09-19T22:34:52.384Z,101235.81
2018-09-19T22:37:21.420Z,101238.13
2018-09-19T22:39:48.535Z,101235.96
2018-09-19T22:42:15.655Z,101237.78
2018-09-19T22:44:42.663Z,101241.53
2018-09-19T22:47:10.712Z,101231.14
2018-09-19T22:49:38.602Z,101234.63
2018-09-19T22:52:05.593Z,101238.24
2018-09-19T22:54:33.487Z,101235.81
2018-09-19T22:57:02.525Z,101234.98
2018-09-19T22:59:29.624Z,101237.78
2018-09-19T23:01:57.528Z,101234.25
2018-09-19T23:04:24.569Z,101232.58
2018-09-19T23:06:52.542Z,101235.96
2018-09-19T23:09:19.613Z,101230.76
2018-09-19T23:11:46.757Z,101228.94
2018-09-19T23:14:14.864Z,101226.28
2018-09-19T23:16:42.925Z,101233.42
2018-09-19T23:19:10.812Z,101229.80
2018-09-19T23:21:38.948Z,101230.64
2018-09-19T23:24:08.170Z,101231.14
2018-09-19T23:26:35.323Z,101231.74
2018-09-19T23:29:03.100Z,101231.59
2018-09-19T23:31:32.219Z,101228.82
2018-09-19T23:33:59.235Z,101229.80
2018-09-19T23:36:26.214Z,101227.15
2018-09-19T23:38:53.484Z,101228.94
2018-09-19T23:41:20.795Z,101229.31
2018-09-19T23:43:47.898Z,101237.14
2018-09-19T23:46:15.861Z,101234.63
2018-09-19T23:48:43.009Z,101235.96
2018-09-19T23:51:10.186Z,101233.30
2018-09-19T23:53:37.319Z,101230.76
2018-09-19T23:56:04.549Z,101235.12
2018-09-19T23:58:32.388Z,101230.41
